sensor_id;sensor_type;location;lat;lon;timestamp;temperature;humidity
44121;DHT22;29783;52.504;13.478;2024-02-26T00:01:40;3.10;92.40
44121;DHT22;29783;52.504;13.478;2024-02-26T00:04:06;3.10;92.50
44121;DHT22;29783;52.504;13.478;2024-02-26T00:06:32;3.10;92.80
44121;DHT22;29783;52.504;13.478;2024-02-26T00:08:58;3.00;92.80
44121;DHT22;29783;52.504;13.478;2024-02-26T00:11:23;3.00;93.00
44121;DHT22;29783;52.504;13.478;2024-02-26T00:13:49;3.10;93.20
44121;DHT22;29783;52.504;13.478;2024-02-26T00:16:14;3.00;93.20
44121;DHT22;29783;52.504;13.478;2024-02-26T00:18:40;3.00;93.30
44121;DHT22;29783;52.504;13.478;2024-02-26T00:21:05;3.00;93.50
44121;DHT22;29783;52.504;13.478;2024-02-26T00:23:31;3.00;93.80
44121;DHT22;29783;52.504;13.478;2024-02-26T00:25:57;3.10;94.00
44121;DHT22;29783;52.504;13.478;2024-02-26T00:28:22;3.30;94.20
44121;DHT22;29783;52.504;13.478;2024-02-26T00:30:50;3.30;94.00
44121;DHT22;29783;52.504;13.478;2024-02-26T00:33:17;3.30;93.80
44121;DHT22;29783;52.504;13.478;2024-02-26T00:35:42;3.30;93.70
44121;DHT22;29783;52.504;13.478;2024-02-26T00:38:08;3.20;93.60
44121;DHT22;29783;52.504;13.478;2024-02-26T00:40:33;3.10;93.50
44121;DHT22;29783;52.504;13.478;2024-02-26T00:42:59;3.10;93.40
44121;DHT22;29783;52.504;13.478;2024-02-26T00:45:25;3.00;93.30
44121;DHT22;29783;52.504;13.478;2024-02-26T00:47:51;2.80;93.40
44121;DHT22;29783;52.504;13.478;2024-02-26T00:50:16;2.80;93.60
44121;DHT22;29783;52.504;13.478;2024-02-26T00:52:42;2.80;94.00
44121;DHT22;29783;52.504;13.478;2024-02-26T00:55:08;2.80;94.10
44121;DHT22;29783;52.504;13.478;2024-02-26T00:57:34;2.80;94.10
44121;DHT22;29783;52.504;13.478;2024-02-26T00:59:59;2.70;94.00
44121;DHT22;29783;52.504;13.478;2024-02-26T01:02:26;2.70;94.00
44121;DHT22;29783;52.504;13.478;2024-02-26T01:04:51;2.60;94.20
44121;DHT22;29783;52.504;13.478;2024-02-26T01:07:17;2.50;94.40
44121;DHT22;29783;52.504;13.478;2024-02-26T01:09:43;2.50;94.40
44121;DHT22;29783;52.504;13.478;2024-02-26T01:12:08;2.50;94.40
44121;DHT22;29783;52.504;13.478;2024-02-26T01:14:34;2.40;94.50
44121;DHT22;29783;52.504;13.478;2024-02-26T01:17:00;2.40;94.50
44121;DHT22;29783;52.504;13.478;2024-02-26T01:19:25;2.50;94.70
44121;DHT22;29783;52.504;13.478;2024-02-26T01:21:51;2.50;94.60
44121;DHT22;29783;52.504;13.478;2024-02-26T01:24:16;2.40;94.60
44121;DHT22;29783;52.504;13.478;2024-02-26T01:26:42;2.40;94.60
44121;DHT22;29783;52.504;13.478;2024-02-26T01:29:09;2.40;94.70
44121;DHT22;29783;52.504;13.478;2024-02-26T01:31:34;2.30;94.70
44121;DHT22;29783;52.504;13.478;2024-02-26T01:34:01;2.30;94.70
44121;DHT22;29783;52.504;13.478;2024-02-26T01:36:27;2.30;95.20
44121;DHT22;29783;52.504;13.478;2024-02-26T01:38:52;2.40;95.30
44121;DHT22;29783;52.504;13.478;2024-02-26T01:41:18;2.30;95.20
44121;DHT22;29783;52.504;13.478;2024-02-26T01:43:43;2.30;95.40
44121;DHT22;29783;52.504;13.478;2024-02-26T01:46:14;2.30;95.40
44121;DHT22;29783;52.504;13.478;2024-02-26T01:48:44;2.30;95.30
44121;DHT22;29783;52.504;13.478;2024-02-26T01:51:12;2.30;95.40
44121;DHT22;29783;52.504;13.478;2024-02-26T01:53:39;2.20;95.30
44121;DHT22;29783;52.504;13.478;2024-02-26T01:56:05;2.20;95.30
44121;DHT22;29783;52.504;13.478;2024-02-26T01:58:31;2.10;95.20
44121;DHT22;29783;52.504;13.478;2024-02-26T02:00:58;2.10;95.20
44121;DHT22;29783;52.504;13.478;2024-02-26T02:03:24;2.10;95.30
44121;DHT22;29783;52.504;13.478;2024-02-26T02:05:50;2.10;95.50
44121;DHT22;29783;52.504;13.478;2024-02-26T02:08:16;2.00;95.50
44121;DHT22;29783;52.504;13.478;2024-02-26T02:10:44;2.00;95.50
44121;DHT22;29783;52.504;13.478;2024-02-26T02:13:13;2.00;95.50
44121;DHT22;29783;52.504;13.478;2024-02-26T02:15:39;2.00;95.60
44121;DHT22;29783;52.504;13.478;2024-02-26T02:18:05;2.00;95.60
44121;DHT22;29783;52.504;13.478;2024-02-26T02:20:34;1.90;95.50
44121;DHT22;29783;52.504;13.478;2024-02-26T02:23:00;1.90;95.60
44121;DHT22;29783;52.504;13.478;2024-02-26T02:25:26;1.90;95.50
44121;DHT22;29783;52.504;13.478;2024-02-26T02:27:53;1.90;95.60
44121;DHT22;29783;52.504;13.478;2024-02-26T02:30:21;1.90;95.80
44121;DHT22;29783;52.504;13.478;2024-02-26T02:32:47;2.00;96.00
44121;DHT22;29783;52.504;13.478;2024-02-26T02:35:12;1.90;95.60
44121;DHT22;29783;52.504;13.478;2024-02-26T02:37:38;1.90;95.70
44121;DHT22;29783;52.504;13.478;2024-02-26T02:40:04;1.80;95.70
44121;DHT22;29783;52.504;13.478;2024-02-26T02:42:30;1.80;95.60
44121;DHT22;29783;52.504;13.478;2024-02-26T02:44:56;1.80;95.60
44121;DHT22;29783;52.504;13.478;2024-02-26T02:47:22;1.80;95.70
44121;DHT22;29783;52.504;13.478;2024-02-26T02:49:48;1.80;95.50
44121;DHT22;29783;52.504;13.478;2024-02-26T02:52:13;1.80;95.60
44121;DHT22;29783;52.504;13.478;2024-02-26T02:54:39;1.80;95.60
44121;DHT22;29783;52.504;13.478;2024-02-26T02:57:07;1.80;95.70
44121;DHT22;29783;52.504;13.478;2024-02-26T02:59:33;1.80;95.80
44121;DHT22;29783;52.504;13.478;2024-02-26T03:01:59;1.90;95.80
44121;DHT22;29783;52.504;13.478;2024-02-26T03:04:24;1.80;95.70
44121;DHT22;29783;52.504;13.478;2024-02-26T03:06:50;1.80;95.70
44121;DHT22;29783;52.504;13.478;2024-02-26T03:09:16;1.80;95.80
44121;DHT22;29783;52.504;13.478;2024-02-26T03:11:41;1.80;95.90
44121;DHT22;29783;52.504;13.478;2024-02-26T03:14:07;1.80;95.90
44121;DHT22;29783;52.504;13.478;2024-02-26T03:16:34;1.80;95.90
44121;DHT22;29783;52.504;13.478;2024-02-26T03:18:59;1.70;95.80
44121;DHT22;29783;52.504;13.478;2024-02-26T03:21:25;1.70;95.80
44121;DHT22;29783;52.504;13.478;2024-02-26T03:23:51;1.60;95.90
44121;DHT22;29783;52.504;13.478;2024-02-26T03:26:16;1.60;95.70
44121;DHT22;29783;52.504;13.478;2024-02-26T03:28:42;1.60;95.90
44121;DHT22;29783;52.504;13.478;2024-02-26T03:31:07;1.60;95.80
44121;DHT22;29783;52.504;13.478;2024-02-26T03:33:34;1.70;96.00
44121;DHT22;29783;52.504;13.478;2024-02-26T03:35:59;1.60;95.80
44121;DHT22;29783;52.504;13.478;2024-02-26T03:38:25;1.50;95.80
44121;DHT22;29783;52.504;13.478;2024-02-26T03:40:51;1.50;95.80
44121;DHT22;29783;52.504;13.478;2024-02-26T03:43:17;1.50;96.00
44121;DHT22;29783;52.504;13.478;2024-02-26T03:45:42;1.50;96.10
44121;DHT22;29783;52.504;13.478;2024-02-26T03:48:08;1.50;96.10
44121;DHT22;29783;52.504;13.478;2024-02-26T03:50:34;1.50;96.10
44121;DHT22;29783;52.504;13.478;2024-02-26T03:53:00;1.50;96.10
44121;DHT22;29783;52.504;13.478;2024-02-26T03:55:25;1.40;96.10
44121;DHT22;29783;52.504;13.478;2024-02-26T03:57:54;1.50;96.10
44121;DHT22;29783;52.504;13.478;2024-02-26T04:00:20;1.50;96.00
44121;DHT22;29783;52.504;13.478;2024-02-26T04:02:47;1.50;96.00
44121;DHT22;29783;52.504;13.478;2024-02-26T04:05:13;1.40;96.00
44121;DHT22;29783;52.504;13.478;2024-02-26T04:07:39;1.40;96.10
44121;DHT22;29783;52.504;13.478;2024-02-26T04:10:12;1.40;96.10
44121;DHT22;29783;52.504;13.478;2024-02-26T04:12:41;1.50;96.10
44121;DHT22;29783;52.504;13.478;2024-02-26T04:15:10;1.40;96.10
44121;DHT22;29783;52.504;13.478;2024-02-26T04:17:37;1.50;96.20
44121;DHT22;29783;52.504;13.478;2024-02-26T04:20:03;1.50;96.20
44121;DHT22;29783;52.504;13.478;2024-02-26T04:22:30;1.60;96.30
44121;DHT22;29783;52.504;13.478;2024-02-26T04:24:56;1.50;96.20
44121;DHT22;29783;52.504;13.478;2024-02-26T04:27:22;1.50;96.30
44121;DHT22;29783;52.504;13.478;2024-02-26T04:29:47;1.50;96.50
44121;DHT22;29783;52.504;13.478;2024-02-26T04:32:13;1.60;96.50
44121;DHT22;29783;52.504;13.478;2024-02-26T04:34:39;1.60;96.50
44121;DHT22;29783;52.504;13.478;2024-02-26T04:37:04;1.60;96.50
44121;DHT22;29783;52.504;13.478;2024-02-26T04:39:30;1.60;96.40
44121;DHT22;29783;52.504;13.478;2024-02-26T04:41:55;1.60;96.30
44121;DHT22;29783;52.504;13.478;2024-02-26T04:44:21;1.50;96.30
44121;DHT22;29783;52.504;13.478;2024-02-26T04:46:46;1.50;96.30
44121;DHT22;29783;52.504;13.478;2024-02-26T04:49:12;1.50;96.40
44121;DHT22;29783;52.504;13.478;2024-02-26T04:51:38;1.60;96.40
44121;DHT22;29783;52.504;13.478;2024-02-26T04:54:03;1.60;96.40
44121;DHT22;29783;52.504;13.478;2024-02-26T04:56:29;1.60;96.50
44121;DHT22;29783;52.504;13.478;2024-02-26T04:58:54;1.60;96.60
44121;DHT22;29783;52.504;13.478;2024-02-26T05:01:20;1.60;96.60
44121;DHT22;29783;52.504;13.478;2024-02-26T05:03:46;1.60;96.60
44121;DHT22;29783;52.504;13.478;2024-02-26T05:06:11;1.60;96.60
44121;DHT22;29783;52.504;13.478;2024-02-26T05:08:38;1.60;96.60
44121;DHT22;29783;52.504;13.478;2024-02-26T05:11:04;1.70;96.60
44121;DHT22;29783;52.504;13.478;2024-02-26T05:13:31;1.70;96.60
44121;DHT22;29783;52.504;13.478;2024-02-26T05:15:56;1.80;96.60
44121;DHT22;29783;52.504;13.478;2024-02-26T05:18:22;1.80;96.70
44121;DHT22;29783;52.504;13.478;2024-02-26T05:20:47;1.80;96.50
44121;DHT22;29783;52.504;13.478;2024-02-26T05:23:13;1.80;96.50
44121;DHT22;29783;52.504;13.478;2024-02-26T05:25:39;1.80;96.50
44121;DHT22;29783;52.504;13.478;2024-02-26T05:28:04;1.70;96.50
44121;DHT22;29783;52.504;13.478;2024-02-26T05:30:30;1.60;96.40
44121;DHT22;29783;52.504;13.478;2024-02-26T05:32:56;1.70;96.50
44121;DHT22;29783;52.504;13.478;2024-02-26T05:35:21;1.70;96.50
44121;DHT22;29783;52.504;13.478;2024-02-26T05:37:47;1.70;96.50
44121;DHT22;29783;52.504;13.478;2024-02-26T05:40:13;1.60;96.50
44121;DHT22;29783;52.504;13.478;2024-02-26T05:42:38;1.60;96.40
44121;DHT22;29783;52.504;13.478;2024-02-26T05:45:04;1.60;96.50
44121;DHT22;29783;52.504;13.478;2024-02-26T05:47:34;1.60;96.50
44121;DHT22;29783;52.504;13.478;2024-02-26T05:50:01;1.80;96.70
44121;DHT22;29783;52.504;13.478;2024-02-26T05:52:27;1.80;96.70
44121;DHT22;29783;52.504;13.478;2024-02-26T05:54:54;1.80;96.60
44121;DHT22;29783;52.504;13.478;2024-02-26T05:57:20;1.80;96.60
44121;DHT22;29783;52.504;13.478;2024-02-26T05:59:46;1.90;96.70
44121;DHT22;29783;52.504;13.478;2024-02-26T06:02:11;1.90;96.70
44121;DHT22;29783;52.504;13.478;2024-02-26T06:04:37;2.00;96.80
44121;DHT22;29783;52.504;13.478;2024-02-26T06:07:02;2.00;96.70
44121;DHT22;29783;52.504;13.478;2024-02-26T06:09:28;2.10;96.80
44121;DHT22;29783;52.504;13.478;2024-02-26T06:11:54;2.10;96.80
44121;DHT22;29783;52.504;13.478;2024-02-26T06:14:20;2.10;96.70
44121;DHT22;29783;52.504;13.478;2024-02-26T06:16:46;2.10;96.70
44121;DHT22;29783;52.504;13.478;2024-02-26T06:19:11;2.00;96.60
44121;DHT22;29783;52.504;13.478;2024-02-26T06:21:37;2.00;96.60
44121;DHT22;29783;52.504;13.478;2024-02-26T06:24:02;2.10;96.70
44121;DHT22;29783;52.504;13.478;2024-02-26T06:26:28;2.20;96.80
44121;DHT22;29783;52.504;13.478;2024-02-26T06:28:55;2.30;96.80
44121;DHT22;29783;52.504;13.478;2024-02-26T06:31:22;2.30;96.80
44121;DHT22;29783;52.504;13.478;2024-02-26T06:33:48;2.40;96.90
44121;DHT22;29783;52.504;13.478;2024-02-26T06:36:15;2.50;96.90
44121;DHT22;29783;52.504;13.478;2024-02-26T06:38:41;2.60;96.80
44121;DHT22;29783;52.504;13.478;2024-02-26T06:41:06;2.60;96.80
44121;DHT22;29783;52.504;13.478;2024-02-26T06:43:32;2.60;96.80
44121;DHT22;29783;52.504;13.478;2024-02-26T06:45:57;2.70;96.80
44121;DHT22;29783;52.504;13.478;2024-02-26T06:48:24;2.70;96.80
44121;DHT22;29783;52.504;13.478;2024-02-26T06:50:50;2.80;96.80
44121;DHT22;29783;52.504;13.478;2024-02-26T06:53:15;2.80;96.80
44121;DHT22;29783;52.504;13.478;2024-02-26T06:55:42;2.90;96.80
44121;DHT22;29783;52.504;13.478;2024-02-26T06:58:08;3.00;96.90
44121;DHT22;29783;52.504;13.478;2024-02-26T07:00:34;3.10;96.80
44121;DHT22;29783;52.504;13.478;2024-02-26T07:02:59;3.10;96.70
44121;DHT22;29783;52.504;13.478;2024-02-26T07:05:25;3.10;96.70
44121;DHT22;29783;52.504;13.478;2024-02-26T07:07:50;3.20;96.60
44121;DHT22;29783;52.504;13.478;2024-02-26T07:10:16;3.20;96.50
44121;DHT22;29783;52.504;13.478;2024-02-26T07:12:41;3.20;96.50
44121;DHT22;29783;52.504;13.478;2024-02-26T07:15:08;3.30;96.50
44121;DHT22;29783;52.504;13.478;2024-02-26T07:17:34;3.30;96.40
44121;DHT22;29783;52.504;13.478;2024-02-26T07:20:00;3.40;96.40
44121;DHT22;29783;52.504;13.478;2024-02-26T07:22:25;3.40;96.30
44121;DHT22;29783;52.504;13.478;2024-02-26T07:24:51;3.50;96.30
44121;DHT22;29783;52.504;13.478;2024-02-26T07:27:18;3.60;96.40
44121;DHT22;29783;52.504;13.478;2024-02-26T07:29:44;3.60;96.20
44121;DHT22;29783;52.504;13.478;2024-02-26T07:32:09;3.70;96.20
44121;DHT22;29783;52.504;13.478;2024-02-26T07:34:36;3.80;96.00
44121;DHT22;29783;52.504;13.478;2024-02-26T07:37:04;3.80;95.60
44121;DHT22;29783;52.504;13.478;2024-02-26T07:39:30;3.80;95.40
44121;DHT22;29783;52.504;13.478;2024-02-26T07:41:55;3.90;95.60
44121;DHT22;29783;52.504;13.478;2024-02-26T07:44:21;4.10;95.80
44121;DHT22;29783;52.504;13.478;2024-02-26T07:46:47;4.20;95.60
44121;DHT22;29783;52.504;13.478;2024-02-26T07:49:12;4.30;95.20
44121;DHT22;29783;52.504;13.478;2024-02-26T07:51:38;4.40;94.70
44121;DHT22;29783;52.504;13.478;2024-02-26T07:54:03;4.60;94.20
44121;DHT22;29783;52.504;13.478;2024-02-26T07:56:29;4.70;93.50
44121;DHT22;29783;52.504;13.478;2024-02-26T07:58:54;4.80;93.00
44121;DHT22;29783;52.504;13.478;2024-02-26T08:01:20;4.90;92.70
44121;DHT22;29783;52.504;13.478;2024-02-26T08:03:45;5.10;92.20
44121;DHT22;29783;52.504;13.478;2024-02-26T08:06:11;5.20;91.70
44121;DHT22;29783;52.504;13.478;2024-02-26T08:08:37;5.30;90.80
44121;DHT22;29783;52.504;13.478;2024-02-26T08:11:03;5.40;89.50
44121;DHT22;29783;52.504;13.478;2024-02-26T08:13:28;5.50;89.30
44121;DHT22;29783;52.504;13.478;2024-02-26T08:15:54;5.60;88.60
44121;DHT22;29783;52.504;13.478;2024-02-26T08:18:20;5.80;88.00
44121;DHT22;29783;52.504;13.478;2024-02-26T08:20:46;5.90;87.60
44121;DHT22;29783;52.504;13.478;2024-02-26T08:23:11;6.00;87.70
44121;DHT22;29783;52.504;13.478;2024-02-26T08:25:37;6.20;87.10
44121;DHT22;29783;52.504;13.478;2024-02-26T08:28:03;6.20;86.30
44121;DHT22;29783;52.504;13.478;2024-02-26T08:30:28;6.30;85.90
44121;DHT22;29783;52.504;13.478;2024-02-26T08:32:54;6.50;85.40
44121;DHT22;29783;52.504;13.478;2024-02-26T08:35:20;6.60;84.70
44121;DHT22;29783;52.504;13.478;2024-02-26T08:37:46;6.90;84.90
44121;DHT22;29783;52.504;13.478;2024-02-26T08:40:12;7.00;82.90
44121;DHT22;29783;52.504;13.478;2024-02-26T08:42:37;7.10;82.80
44121;DHT22;29783;52.504;13.478;2024-02-26T08:45:03;7.30;82.10
44121;DHT22;29783;52.504;13.478;2024-02-26T08:47:29;7.50;81.20
44121;DHT22;29783;52.504;13.478;2024-02-26T08:49:55;7.50;81.20
44121;DHT22;29783;52.504;13.478;2024-02-26T08:52:20;7.60;80.70
44121;DHT22;29783;52.504;13.478;2024-02-26T08:54:47;7.70;80.10
44121;DHT22;29783;52.504;13.478;2024-02-26T08:57:13;7.80;79.80
44121;DHT22;29783;52.504;13.478;2024-02-26T08:59:38;7.80;79.80
44121;DHT22;29783;52.504;13.478;2024-02-26T09:02:04;7.80;80.00
44121;DHT22;29783;52.504;13.478;2024-02-26T09:04:29;8.00;79.40
44121;DHT22;29783;52.504;13.478;2024-02-26T09:06:55;8.20;78.40
44121;DHT22;29783;52.504;13.478;2024-02-26T09:09:21;8.30;77.90
44121;DHT22;29783;52.504;13.478;2024-02-26T09:11:48;8.40;78.10
44121;DHT22;29783;52.504;13.478;2024-02-26T09:14:17;8.50;77.30
44121;DHT22;29783;52.504;13.478;2024-02-26T09:16:42;8.60;76.40
44121;DHT22;29783;52.504;13.478;2024-02-26T09:19:08;8.50;77.00
44121;DHT22;29783;52.504;13.478;2024-02-26T09:21:33;8.50;77.00
44121;DHT22;29783;52.504;13.478;2024-02-26T09:23:59;8.70;76.50
44121;DHT22;29783;52.504;13.478;2024-02-26T09:26:24;8.70;76.10
44121;DHT22;29783;52.504;13.478;2024-02-26T09:28:50;8.70;76.00
44121;DHT22;29783;52.504;13.478;2024-02-26T09:31:17;8.50;76.60
44121;DHT22;29783;52.504;13.478;2024-02-26T09:33:43;8.40;77.00
44121;DHT22;29783;52.504;13.478;2024-02-26T09:36:09;8.40;76.70
44121;DHT22;29783;52.504;13.478;2024-02-26T09:38:36;8.60;77.10
44121;DHT22;29783;52.504;13.478;2024-02-26T09:41:04;8.70;76.70
44121;DHT22;29783;52.504;13.478;2024-02-26T09:43:35;8.80;76.30
44121;DHT22;29783;52.504;13.478;2024-02-26T09:46:05;9.00;75.70
44121;DHT22;29783;52.504;13.478;2024-02-26T09:48:31;9.10;75.10
44121;DHT22;29783;52.504;13.478;2024-02-26T09:50:57;9.20;74.40
44121;DHT22;29783;52.504;13.478;2024-02-26T09:53:23;9.20;74.60
44121;DHT22;29783;52.504;13.478;2024-02-26T09:55:48;9.40;75.10
44121;DHT22;29783;52.504;13.478;2024-02-26T09:58:14;9.40;73.30
44121;DHT22;29783;52.504;13.478;2024-02-26T10:00:51;9.50;73.20
44121;DHT22;29783;52.504;13.478;2024-02-26T10:03:20;9.70;72.60
44121;DHT22;29783;52.504;13.478;2024-02-26T10:05:48;10.00;71.40
44121;DHT22;29783;52.504;13.478;2024-02-26T10:08:15;10.00;70.30
44121;DHT22;29783;52.504;13.478;2024-02-26T10:10:41;9.90;71.30
44121;DHT22;29783;52.504;13.478;2024-02-26T10:13:07;10.20;70.90
44121;DHT22;29783;52.504;13.478;2024-02-26T10:15:36;10.30;70.10
44121;DHT22;29783;52.504;13.478;2024-02-26T10:18:05;10.40;69.30
44121;DHT22;29783;52.504;13.478;2024-02-26T10:20:31;10.30;69.80
44121;DHT22;29783;52.504;13.478;2024-02-26T10:22:57;10.50;69.70
44121;DHT22;29783;52.504;13.478;2024-02-26T10:25:23;10.70;69.40
44121;DHT22;29783;52.504;13.478;2024-02-26T10:27:49;10.80;68.20
44121;DHT22;29783;52.504;13.478;2024-02-26T10:30:22;10.90;67.30
44121;DHT22;29783;52.504;13.478;2024-02-26T10:32:51;10.80;67.80
44121;DHT22;29783;52.504;13.478;2024-02-26T10:35:17;10.90;67.10
44121;DHT22;29783;52.504;13.478;2024-02-26T10:37:46;11.00;66.70
44121;DHT22;29783;52.504;13.478;2024-02-26T10:40:13;11.10;66.30
44121;DHT22;29783;52.504;13.478;2024-02-26T10:42:39;11.20;66.60
44121;DHT22;29783;52.504;13.478;2024-02-26T10:45:08;11.20;65.80
44121;DHT22;29783;52.504;13.478;2024-02-26T10:47:37;11.20;66.10
44121;DHT22;29783;52.504;13.478;2024-02-26T10:50:04;11.20;65.80
44121;DHT22;29783;52.504;13.478;2024-02-26T10:52:35;11.10;65.70
44121;DHT22;29783;52.504;13.478;2024-02-26T10:55:03;11.10;66.80
44121;DHT22;29783;52.504;13.478;2024-02-26T10:57:33;11.40;65.80
44121;DHT22;29783;52.504;13.478;2024-02-26T11:00:00;11.50;64.60
44121;DHT22;29783;52.504;13.478;2024-02-26T11:02:27;11.50;64.50
44121;DHT22;29783;52.504;13.478;2024-02-26T11:04:53;11.60;64.70
44121;DHT22;29783;52.504;13.478;2024-02-26T11:07:20;11.80;64.40
44121;DHT22;29783;52.504;13.478;2024-02-26T11:09:46;11.90;63.90
44121;DHT22;29783;52.504;13.478;2024-02-26T11:12:17;11.70;63.60
44121;DHT22;29783;52.504;13.478;2024-02-26T11:14:44;11.80;63.90
44121;DHT22;29783;52.504;13.478;2024-02-26T11:17:13;12.00;62.60
44121;DHT22;29783;52.504;13.478;2024-02-26T11:19:39;11.80;63.20
44121;DHT22;29783;52.504;13.478;2024-02-26T11:22:07;12.00;61.80
44121;DHT22;29783;52.504;13.478;2024-02-26T11:24:33;12.10;62.00
44121;DHT22;29783;52.504;13.478;2024-02-26T11:27:01;12.10;62.40
44121;DHT22;29783;52.504;13.478;2024-02-26T11:29:33;12.30;61.80
44121;DHT22;29783;52.504;13.478;2024-02-26T11:32:01;12.50;59.70
44121;DHT22;29783;52.504;13.478;2024-02-26T11:34:27;12.30;60.10
44121;DHT22;29783;52.504;13.478;2024-02-26T11:36:54;12.30;59.80
44121;DHT22;29783;52.504;13.478;2024-02-26T11:39:19;12.30;59.70
44121;DHT22;29783;52.504;13.478;2024-02-26T11:41:46;12.50;59.50
44121;DHT22;29783;52.504;13.478;2024-02-26T11:44:11;12.40;59.30
44121;DHT22;29783;52.504;13.478;2024-02-26T11:46:41;12.30;59.60
44121;DHT22;29783;52.504;13.478;2024-02-26T11:51:56;12.40;58.60
44121;DHT22;29783;52.504;13.478;2024-02-26T11:54:57;12.50;58.30
44121;DHT22;29783;52.504;13.478;2024-02-26T11:57:32;12.80;57.60
44121;DHT22;29783;52.504;13.478;2024-02-26T12:02:51;13.20;56.10
44121;DHT22;29783;52.504;13.478;2024-02-26T12:05:23;13.10;55.60
44121;DHT22;29783;52.504;13.478;2024-02-26T12:07:53;13.30;55.80
44121;DHT22;29783;52.504;13.478;2024-02-26T12:10:31;13.50;55.00
44121;DHT22;29783;52.504;13.478;2024-02-26T12:13:08;13.50;54.40
44121;DHT22;29783;52.504;13.478;2024-02-26T12:15:41;13.50;55.20
44121;DHT22;29783;52.504;13.478;2024-02-26T12:18:08;13.30;54.00
44121;DHT22;29783;52.504;13.478;2024-02-26T12:20:36;13.50;53.60
44121;DHT22;29783;52.504;13.478;2024-02-26T12:23:02;13.50;53.80
44121;DHT22;29783;52.504;13.478;2024-02-26T12:25:30;13.70;52.70
44121;DHT22;29783;52.504;13.478;2024-02-26T12:27:57;13.80;52.50
44121;DHT22;29783;52.504;13.478;2024-02-26T12:30:23;14.00;52.30
44121;DHT22;29783;52.504;13.478;2024-02-26T12:32:50;14.00;52.50
44121;DHT22;29783;52.504;13.478;2024-02-26T12:35:16;14.10;51.80
44121;DHT22;29783;52.504;13.478;2024-02-26T12:37:43;14.20;53.00
44121;DHT22;29783;52.504;13.478;2024-02-26T12:40:10;14.20;54.40
44121;DHT22;29783;52.504;13.478;2024-02-26T12:42:36;14.30;52.20
44121;DHT22;29783;52.504;13.478;2024-02-26T12:45:07;14.30;52.70
44121;DHT22;29783;52.504;13.478;2024-02-26T12:47:39;14.20;53.80
44121;DHT22;29783;52.504;13.478;2024-02-26T12:50:06;14.10;51.90
44121;DHT22;29783;52.504;13.478;2024-02-26T12:52:40;14.50;51.20
44121;DHT22;29783;52.504;13.478;2024-02-26T12:55:06;14.70;53.00
44121;DHT22;29783;52.504;13.478;2024-02-26T12:57:38;15.20;49.90
44121;DHT22;29783;52.504;13.478;2024-02-26T13:00:08;15.50;47.30
44121;DHT22;29783;52.504;13.478;2024-02-26T13:02:36;15.60;47.70
44121;DHT22;29783;52.504;13.478;2024-02-26T13:05:04;15.50;49.50
44121;DHT22;29783;52.504;13.478;2024-02-26T13:07:31;15.90;48.70
44121;DHT22;29783;52.504;13.478;2024-02-26T13:09:57;16.00;47.20
44121;DHT22;29783;52.504;13.478;2024-02-26T13:12:22;15.90;48.30
44121;DHT22;29783;52.504;13.478;2024-02-26T13:14:59;15.90;48.90
44121;DHT22;29783;52.504;13.478;2024-02-26T13:17:25;15.80;48.90
44121;DHT22;29783;52.504;13.478;2024-02-26T13:19:53;15.60;48.50
44121;DHT22;29783;52.504;13.478;2024-02-26T13:22:21;15.00;49.80
44121;DHT22;29783;52.504;13.478;2024-02-26T13:24:54;14.80;50.30
44121;DHT22;29783;52.504;13.478;2024-02-26T13:27:23;14.60;51.10
44121;DHT22;29783;52.504;13.478;2024-02-26T13:30:01;14.70;51.10
44121;DHT22;29783;52.504;13.478;2024-02-26T13:32:27;14.80;50.20
44121;DHT22;29783;52.504;13.478;2024-02-26T13:35:08;14.80;49.70
44121;DHT22;29783;52.504;13.478;2024-02-26T13:37:37;14.50;50.20
44121;DHT22;29783;52.504;13.478;2024-02-26T13:40:08;14.10;51.10
44121;DHT22;29783;52.504;13.478;2024-02-26T13:42:34;13.90;51.30
44121;DHT22;29783;52.504;13.478;2024-02-26T13:45:01;13.80;51.50
44121;DHT22;29783;52.504;13.478;2024-02-26T13:47:26;13.60;52.10
44121;DHT22;29783;52.504;13.478;2024-02-26T13:49:52;13.50;52.60
44121;DHT22;29783;52.504;13.478;2024-02-26T13:52:18;13.30;53.20
44121;DHT22;29783;52.504;13.478;2024-02-26T13:54:45;13.30;53.70
44121;DHT22;29783;52.504;13.478;2024-02-26T13:57:11;13.30;53.50
44121;DHT22;29783;52.504;13.478;2024-02-26T13:59:37;13.20;53.30
44121;DHT22;29783;52.504;13.478;2024-02-26T14:02:03;13.00;54.00
44121;DHT22;29783;52.504;13.478;2024-02-26T14:04:29;12.80;54.60
44121;DHT22;29783;52.504;13.478;2024-02-26T14:06:55;12.70;55.10
44121;DHT22;29783;52.504;13.478;2024-02-26T14:09:20;12.70;55.30
44121;DHT22;29783;52.504;13.478;2024-02-26T14:11:46;12.70;54.90
44121;DHT22;29783;52.504;13.478;2024-02-26T14:14:11;12.70;55.10
44121;DHT22;29783;52.504;13.478;2024-02-26T14:16:37;12.70;55.20
44121;DHT22;29783;52.504;13.478;2024-02-26T14:19:03;12.60;55.40
44121;DHT22;29783;52.504;13.478;2024-02-26T14:21:29;12.60;55.50
44121;DHT22;29783;52.504;13.478;2024-02-26T14:23:55;12.40;56.30
44121;DHT22;29783;52.504;13.478;2024-02-26T14:26:24;12.50;56.20
44121;DHT22;29783;52.504;13.478;2024-02-26T14:28:50;12.50;56.30
44121;DHT22;29783;52.504;13.478;2024-02-26T14:31:19;12.60;56.30
44121;DHT22;29783;52.504;13.478;2024-02-26T14:33:44;12.50;56.80
44121;DHT22;29783;52.504;13.478;2024-02-26T14:36:10;12.30;57.20
44121;DHT22;29783;52.504;13.478;2024-02-26T14:38:36;12.30;57.60
44121;DHT22;29783;52.504;13.478;2024-02-26T14:41:02;12.30;57.90
44121;DHT22;29783;52.504;13.478;2024-02-26T14:50:01;12.10;58.60
44121;DHT22;29783;52.504;13.478;2024-02-26T14:52:27;12.10;58.70
44121;DHT22;29783;52.504;13.478;2024-02-26T14:54:53;11.90;59.30
44121;DHT22;29783;52.504;13.478;2024-02-26T14:57:19;11.80;59.50
44121;DHT22;29783;52.504;13.478;2024-02-26T14:59:45;11.80;59.40
44121;DHT22;29783;52.504;13.478;2024-02-26T15:02:11;11.80;59.50
44121;DHT22;29783;52.504;13.478;2024-02-26T15:04:37;11.90;59.40
44121;DHT22;29783;52.504;13.478;2024-02-26T15:07:03;11.90;59.30
44121;DHT22;29783;52.504;13.478;2024-02-26T15:09:29;11.80;59.60
44121;DHT22;29783;52.504;13.478;2024-02-26T15:11:55;11.70;60.40
44121;DHT22;29783;52.504;13.478;2024-02-26T15:14:23;11.70;60.20
44121;DHT22;29783;52.504;13.478;2024-02-26T15:16:48;11.60;60.30
44121;DHT22;29783;52.504;13.478;2024-02-26T15:19:14;11.50;60.60
44121;DHT22;29783;52.504;13.478;2024-02-26T15:21:46;11.40;60.80
44121;DHT22;29783;52.504;13.478;2024-02-26T15:24:12;11.30;61.40
44121;DHT22;29783;52.504;13.478;2024-02-26T15:26:38;11.20;61.80
44121;DHT22;29783;52.504;13.478;2024-02-26T15:29:06;11.20;62.30
44121;DHT22;29783;52.504;13.478;2024-02-26T15:31:31;11.20;62.40
44121;DHT22;29783;52.504;13.478;2024-02-26T15:33:57;11.10;62.80